sensor_id;sensor_type;location;lat;lon;timestamp;P1;durP1;ratioP1;P2;durP2;ratioP2
22603;SDS011;11469;49.024;8.246;2023-08-24T00:01:15;11.50;;;5.90;;
22603;SDS011;11469;49.024;8.246;2023-08-24T00:03:41;15.27;;;5.90;;
22603;SDS011;11469;49.024;8.246;2023-08-24T00:06:08;9.05;;;5.47;;
22603;SDS011;11469;49.024;8.246;2023-08-24T00:08:34;10.80;;;5.55;;
22603;SDS011;11469;49.024;8.246;2023-08-24T00:10:59;11.73;;;6.25;;
22603;SDS011;11469;49.024;8.246;2023-08-24T00:13:25;10.38;;;6.50;;
22603;SDS011;11469;49.024;8.246;2023-08-24T00:15:51;15.48;;;6.07;;
22603;SDS011;11469;49.024;8.246;2023-08-24T00:18:19;8.60;;;6.07;;
22603;SDS011;11469;49.024;8.246;2023-08-24T00:20:46;9.40;;;5.85;;
22603;SDS011;11469;49.024;8.246;2023-08-24T00:23:12;17.75;;;6.18;;
22603;SDS011;11469;49.024;8.246;2023-08-24T00:25:38;9.48;;;6.28;;
22603;SDS011;11469;49.024;8.246;2023-08-24T00:28:06;13.77;;;6.75;;
22603;SDS011;11469;49.024;8.246;2023-08-24T00:30:31;13.02;;;5.65;;
22603;SDS011;11469;49.024;8.246;2023-08-24T00:32:57;11.85;;;6.10;;
22603;SDS011;11469;49.024;8.246;2023-08-24T00:35:22;9.23;;;5.63;;
22603;SDS011;11469;49.024;8.246;2023-08-24T00:37:47;10.35;;;5.72;;
22603;SDS011;11469;49.024;8.246;2023-08-24T00:40:13;16.48;;;5.97;;
22603;SDS011;11469;49.024;8.246;2023-08-24T00:42:39;11.98;;;5.68;;
22603;SDS011;11469;49.024;8.246;2023-08-24T00:45:05;15.10;;;5.32;;
22603;SDS011;11469;49.024;8.246;2023-08-24T00:47:32;8.43;;;5.60;;
22603;SDS011;11469;49.024;8.246;2023-08-24T00:50:01;10.05;;;5.97;;
22603;SDS011;11469;49.024;8.246;2023-08-24T00:52:28;10.85;;;6.22;;
22603;SDS011;11469;49.024;8.246;2023-08-24T00:54:56;11.55;;;5.95;;
22603;SDS011;11469;49.024;8.246;2023-08-24T00:57:22;10.10;;;6.07;;
22603;SDS011;11469;49.024;8.246;2023-08-24T00:59:48;10.43;;;6.10;;
22603;SDS011;11469;49.024;8.246;2023-08-24T01:02:13;13.25;;;6.20;;
22603;SDS011;11469;49.024;8.246;2023-08-24T01:04:40;11.32;;;5.95;;
22603;SDS011;11469;49.024;8.246;2023-08-24T01:07:07;14.48;;;5.57;;
22603;SDS011;11469;49.024;8.246;2023-08-24T01:09:34;12.45;;;5.50;;
22603;SDS011;11469;49.024;8.246;2023-08-24T01:12:02;8.02;;;4.88;;
22603;SDS011;11469;49.024;8.246;2023-08-24T01:14:32;10.30;;;5.72;;
22603;SDS011;11469;49.024;8.246;2023-08-24T01:17:14;17.53;;;6.07;;
22603;SDS011;11469;49.024;8.246;2023-08-24T01:19:44;9.82;;;5.93;;
22603;SDS011;11469;49.024;8.246;2023-08-24T01:22:22;10.07;;;5.55;;
22603;SDS011;11469;49.024;8.246;2023-08-24T01:25:03;14.10;;;5.75;;
22603;SDS011;11469;49.024;8.246;2023-08-24T01:27:32;14.57;;;5.57;;
22603;SDS011;11469;49.024;8.246;2023-08-24T01:30:00;7.40;;;5.50;;
22603;SDS011;11469;49.024;8.246;2023-08-24T01:32:29;12.15;;;5.30;;
22603;SDS011;11469;49.024;8.246;2023-08-24T01:34:56;10.85;;;5.38;;
22603;SDS011;11469;49.024;8.246;2023-08-24T01:37:22;8.65;;;5.00;;
22603;SDS011;11469;49.024;8.246;2023-08-24T01:39:54;11.43;;;5.20;;
22603;SDS011;11469;49.024;8.246;2023-08-24T01:42:35;8.93;;;4.82;;
22603;SDS011;11469;49.024;8.246;2023-08-24T01:45:03;6.47;;;4.90;;
22603;SDS011;11469;49.024;8.246;2023-08-24T01:47:32;13.65;;;5.50;;
22603;SDS011;11469;49.024;8.246;2023-08-24T01:49:59;12.35;;;5.13;;
22603;SDS011;11469;49.024;8.246;2023-08-24T01:52:26;10.68;;;5.68;;
22603;SDS011;11469;49.024;8.246;2023-08-24T01:54:52;14.25;;;5.10;;
22603;SDS011;11469;49.024;8.246;2023-08-24T01:57:17;7.50;;;4.88;;
22603;SDS011;11469;49.024;8.246;2023-08-24T01:59:43;7.68;;;5.13;;
22603;SDS011;11469;49.024;8.246;2023-08-24T02:02:08;17.20;;;5.47;;
22603;SDS011;11469;49.024;8.246;2023-08-24T02:04:34;11.60;;;4.82;;
22603;SDS011;11469;49.024;8.246;2023-08-24T02:06:59;8.65;;;4.85;;
22603;SDS011;11469;49.024;8.246;2023-08-24T02:09:24;13.65;;;5.55;;
22603;SDS011;11469;49.024;8.246;2023-08-24T02:11:50;7.38;;;4.90;;
22603;SDS011;11469;49.024;8.246;2023-08-24T02:14:15;11.63;;;5.35;;
22603;SDS011;11469;49.024;8.246;2023-08-24T02:16:40;19.05;;;5.18;;
22603;SDS011;11469;49.024;8.246;2023-08-24T02:19:06;6.55;;;4.47;;
22603;SDS011;11469;49.024;8.246;2023-08-24T02:21:31;9.68;;;4.90;;
22603;SDS011;11469;49.024;8.246;2023-08-24T02:23:57;11.52;;;5.00;;
22603;SDS011;11469;49.024;8.246;2023-08-24T02:26:22;7.03;;;4.75;;
22603;SDS011;11469;49.024;8.246;2023-08-24T02:28:47;11.00;;;5.05;;
22603;SDS011;11469;49.024;8.246;2023-08-24T02:31:13;7.93;;;4.82;;
22603;SDS011;11469;49.024;8.246;2023-08-24T02:33:38;7.38;;;4.85;;
22603;SDS011;11469;49.024;8.246;2023-08-24T02:36:04;7.38;;;4.70;;
22603;SDS011;11469;49.024;8.246;2023-08-24T02:38:29;10.90;;;4.88;;
22603;SDS011;11469;49.024;8.246;2023-08-24T02:41:01;8.70;;;5.10;;
22603;SDS011;11469;49.024;8.246;2023-08-24T02:43:27;5.45;;;3.88;;
22603;SDS011;11469;49.024;8.246;2023-08-24T02:45:53;14.85;;;4.82;;
22603;SDS011;11469;49.024;8.246;2023-08-24T02:48:18;11.15;;;4.70;;
22603;SDS011;11469;49.024;8.246;2023-08-24T02:50:45;14.65;;;4.63;;
22603;SDS011;11469;49.024;8.246;2023-08-24T02:53:12;8.88;;;4.20;;
22603;SDS011;11469;49.024;8.246;2023-08-24T02:55:38;8.63;;;4.90;;
22603;SDS011;11469;49.024;8.246;2023-08-24T02:58:03;7.50;;;4.10;;
22603;SDS011;11469;49.024;8.246;2023-08-24T03:00:28;10.27;;;4.47;;
22603;SDS011;11469;49.024;8.246;2023-08-24T03:02:54;11.48;;;4.95;;
22603;SDS011;11469;49.024;8.246;2023-08-24T03:05:19;8.68;;;4.40;;
22603;SDS011;11469;49.024;8.246;2023-08-24T03:07:44;14.20;;;4.80;;
22603;SDS011;11469;49.024;8.246;2023-08-24T03:10:10;15.65;;;4.45;;
22603;SDS011;11469;49.024;8.246;2023-08-24T03:12:35;9.02;;;5.07;;
22603;SDS011;11469;49.024;8.246;2023-08-24T03:15:01;12.25;;;4.63;;
22603;SDS011;11469;49.024;8.246;2023-08-24T03:17:26;9.98;;;4.50;;
22603;SDS011;11469;49.024;8.246;2023-08-24T03:19:51;9.68;;;4.80;;
22603;SDS011;11469;49.024;8.246;2023-08-24T03:22:17;10.18;;;5.20;;
22603;SDS011;11469;49.024;8.246;2023-08-24T03:24:42;13.95;;;5.20;;
22603;SDS011;11469;49.024;8.246;2023-08-24T03:27:08;9.75;;;5.25;;
22603;SDS011;11469;49.024;8.246;2023-08-24T03:29:33;11.02;;;4.70;;
22603;SDS011;11469;49.024;8.246;2023-08-24T03:31:59;8.02;;;4.45;;
22603;SDS011;11469;49.024;8.246;2023-08-24T03:34:24;9.07;;;4.15;;
22603;SDS011;11469;49.024;8.246;2023-08-24T03:36:50;14.15;;;4.80;;
22603;SDS011;11469;49.024;8.246;2023-08-24T03:39:15;14.40;;;4.03;;
22603;SDS011;11469;49.024;8.246;2023-08-24T03:41:41;9.63;;;4.30;;
22603;SDS011;11469;49.024;8.246;2023-08-24T03:44:06;10.55;;;4.57;;
22603;SDS011;11469;49.024;8.246;2023-08-24T03:46:32;15.57;;;4.75;;
22603;SDS011;11469;49.024;8.246;2023-08-24T03:48:57;10.13;;;4.38;;
22603;SDS011;11469;49.024;8.246;2023-08-24T03:51:22;10.52;;;4.47;;
22603;SDS011;11469;49.024;8.246;2023-08-24T03:53:48;10.05;;;4.32;;
22603;SDS011;11469;49.024;8.246;2023-08-24T03:56:13;8.95;;;4.38;;
22603;SDS011;11469;49.024;8.246;2023-08-24T03:58:38;7.57;;;4.63;;
22603;SDS011;11469;49.024;8.246;2023-08-24T04:01:04;7.53;;;4.38;;
22603;SDS011;11469;49.024;8.246;2023-08-24T04:03:31;17.15;;;4.13;;
22603;SDS011;11469;49.024;8.246;2023-08-24T04:05:57;7.85;;;4.57;;
22603;SDS011;11469;49.024;8.246;2023-08-24T04:08:22;7.50;;;4.40;;
22603;SDS011;11469;49.024;8.246;2023-08-24T04:10:48;14.45;;;5.00;;
22603;SDS011;11469;49.024;8.246;2023-08-24T04:13:14;13.85;;;4.68;;
22603;SDS011;11469;49.024;8.246;2023-08-24T04:15:39;7.95;;;4.13;;
22603;SDS011;11469;49.024;8.246;2023-08-24T04:18:04;13.50;;;4.82;;
22603;SDS011;11469;49.024;8.246;2023-08-24T04:20:30;10.10;;;4.07;;
22603;SDS011;11469;49.024;8.246;2023-08-24T04:22:55;9.35;;;4.57;;
22603;SDS011;11469;49.024;8.246;2023-08-24T04:25:21;7.68;;;4.32;;
22603;SDS011;11469;49.024;8.246;2023-08-24T04:27:46;10.38;;;4.28;;
22603;SDS011;11469;49.024;8.246;2023-08-24T04:30:12;13.77;;;4.10;;
22603;SDS011;11469;49.024;8.246;2023-08-24T04:32:39;15.32;;;4.38;;
22603;SDS011;11469;49.024;8.246;2023-08-24T04:35:04;10.90;;;4.30;;
22603;SDS011;11469;49.024;8.246;2023-08-24T04:37:30;6.80;;;4.30;;
22603;SDS011;11469;49.024;8.246;2023-08-24T04:39:55;10.57;;;4.50;;
22603;SDS011;11469;49.024;8.246;2023-08-24T04:42:21;10.57;;;4.82;;
22603;SDS011;11469;49.024;8.246;2023-08-24T04:44:46;11.40;;;4.60;;
22603;SDS011;11469;49.024;8.246;2023-08-24T04:47:11;8.30;;;4.78;;
22603;SDS011;11469;49.024;8.246;2023-08-24T04:49:37;9.73;;;4.55;;
22603;SDS011;11469;49.024;8.246;2023-08-24T04:52:02;7.50;;;5.05;;
22603;SDS011;11469;49.024;8.246;2023-08-24T04:54:28;12.20;;;4.82;;
22603;SDS011;11469;49.024;8.246;2023-08-24T04:56:54;10.55;;;4.45;;
22603;SDS011;11469;49.024;8.246;2023-08-24T04:59:19;20.30;;;4.65;;
22603;SDS011;11469;49.024;8.246;2023-08-24T05:01:44;11.68;;;5.05;;
22603;SDS011;11469;49.024;8.246;2023-08-24T05:04:10;13.82;;;4.70;;
22603;SDS011;11469;49.024;8.246;2023-08-24T05:06:36;9.30;;;5.18;;
22603;SDS011;11469;49.024;8.246;2023-08-24T05:09:01;13.30;;;5.13;;
22603;SDS011;11469;49.024;8.246;2023-08-24T05:11:27;7.80;;;4.70;;
22603;SDS011;11469;49.024;8.246;2023-08-24T05:13:56;7.65;;;4.80;;
22603;SDS011;11469;49.024;8.246;2023-08-24T05:16:21;10.68;;;4.82;;
22603;SDS011;11469;49.024;8.246;2023-08-24T05:18:47;14.93;;;4.88;;
22603;SDS011;11469;49.024;8.246;2023-08-24T05:21:12;13.98;;;4.97;;
22603;SDS011;11469;49.024;8.246;2023-08-24T05:23:38;10.07;;;5.25;;
22603;SDS011;11469;49.024;8.246;2023-08-24T05:26:03;12.77;;;5.30;;
22603;SDS011;11469;49.024;8.246;2023-08-24T05:28:30;10.90;;;4.88;;
22603;SDS011;11469;49.024;8.246;2023-08-24T05:30:56;10.38;;;5.05;;
22603;SDS011;11469;49.024;8.246;2023-08-24T05:33:23;8.48;;;4.68;;
22603;SDS011;11469;49.024;8.246;2023-08-24T05:35:49;10.65;;;4.57;;
22603;SDS011;11469;49.024;8.246;2023-08-24T05:38:16;11.13;;;4.68;;
22603;SDS011;11469;49.024;8.246;2023-08-24T05:40:42;10.57;;;5.07;;
22603;SDS011;11469;49.024;8.246;2023-08-24T05:43:11;16.67;;;4.43;;
22603;SDS011;11469;49.024;8.246;2023-08-24T05:45:36;12.50;;;4.50;;
22603;SDS011;11469;49.024;8.246;2023-08-24T05:48:04;11.27;;;4.70;;
22603;SDS011;11469;49.024;8.246;2023-08-24T05:50:30;15.38;;;4.25;;
22603;SDS011;11469;49.024;8.246;2023-08-24T05:52:56;10.13;;;4.30;;
22603;SDS011;11469;49.024;8.246;2023-08-24T05:55:22;9.65;;;4.35;;
22603;SDS011;11469;49.024;8.246;2023-08-24T05:57:47;12.40;;;4.32;;
22603;SDS011;11469;49.024;8.246;2023-08-24T06:00:13;8.82;;;4.20;;
22603;SDS011;11469;49.024;8.246;2023-08-24T06:02:39;8.07;;;4.10;;
22603;SDS011;11469;49.024;8.246;2023-08-24T06:05:05;8.55;;;3.70;;
22603;SDS011;11469;49.024;8.246;2023-08-24T06:07:31;10.18;;;3.47;;
22603;SDS011;11469;49.024;8.246;2023-08-24T06:09:57;11.32;;;4.40;;
22603;SDS011;11469;49.024;8.246;2023-08-24T06:12:23;13.40;;;3.63;;
22603;SDS011;11469;49.024;8.246;2023-08-24T06:14:48;10.23;;;3.95;;
22603;SDS011;11469;49.024;8.246;2023-08-24T06:17:14;11.32;;;3.70;;
22603;SDS011;11469;49.024;8.246;2023-08-24T06:19:39;9.25;;;3.40;;
22603;SDS011;11469;49.024;8.246;2023-08-24T06:22:04;8.50;;;3.63;;
22603;SDS011;11469;49.024;8.246;2023-08-24T06:24:30;12.15;;;3.58;;
22603;SDS011;11469;49.024;8.246;2023-08-24T06:26:56;8.77;;;3.22;;
22603;SDS011;11469;49.024;8.246;2023-08-24T06:29:21;8.25;;;3.38;;
22603;SDS011;11469;49.024;8.246;2023-08-24T06:31:47;8.95;;;3.50;;
22603;SDS011;11469;49.024;8.246;2023-08-24T06:34:12;8.15;;;3.35;;
22603;SDS011;11469;49.024;8.246;2023-08-24T06:36:38;7.30;;;3.70;;
22603;SDS011;11469;49.024;8.246;2023-08-24T06:39:03;9.45;;;3.63;;
22603;SDS011;11469;49.024;8.246;2023-08-24T06:41:32;13.35;;;3.45;;
22603;SDS011;11469;49.024;8.246;2023-08-24T06:43:59;7.80;;;3.67;;
22603;SDS011;11469;49.024;8.246;2023-08-24T06:46:24;10.73;;;3.95;;
22603;SDS011;11469;49.024;8.246;2023-08-24T06:48:50;7.97;;;3.03;;
22603;SDS011;11469;49.024;8.246;2023-08-24T06:51:15;7.88;;;3.60;;
22603;SDS011;11469;49.024;8.246;2023-08-24T06:53:41;5.07;;;3.25;;
22603;SDS011;11469;49.024;8.246;2023-08-24T06:56:07;10.38;;;2.95;;
22603;SDS011;11469;49.024;8.246;2023-08-24T06:58:34;6.40;;;2.72;;
22603;SDS011;11469;49.024;8.246;2023-08-24T07:00:59;11.63;;;3.60;;
22603;SDS011;11469;49.024;8.246;2023-08-24T07:03:25;16.65;;;3.17;;
22603;SDS011;11469;49.024;8.246;2023-08-24T07:05:50;9.20;;;3.22;;
22603;SDS011;11469;49.024;8.246;2023-08-24T07:08:16;9.20;;;3.17;;
22603;SDS011;11469;49.024;8.246;2023-08-24T07:10:42;7.88;;;3.20;;
22603;SDS011;11469;49.024;8.246;2023-08-24T07:13:08;10.32;;;3.20;;
22603;SDS011;11469;49.024;8.246;2023-08-24T07:15:34;5.55;;;3.22;;
22603;SDS011;11469;49.024;8.246;2023-08-24T07:18:03;6.95;;;3.00;;
22603;SDS011;11469;49.024;8.246;2023-08-24T07:20:31;11.75;;;3.30;;
22603;SDS011;11469;49.024;8.246;2023-08-24T07:22:57;6.03;;;3.10;;
22603;SDS011;11469;49.024;8.246;2023-08-24T07:25:23;7.28;;;3.10;;
22603;SDS011;11469;49.024;8.246;2023-08-24T07:27:48;5.60;;;3.22;;
22603;SDS011;11469;49.024;8.246;2023-08-24T07:30:14;7.07;;;3.10;;
22603;SDS011;11469;49.024;8.246;2023-08-24T07:32:39;12.48;;;3.60;;
22603;SDS011;11469;49.024;8.246;2023-08-24T07:35:06;11.63;;;3.92;;
22603;SDS011;11469;49.024;8.246;2023-08-24T07:37:31;12.23;;;3.50;;
22603;SDS011;11469;49.024;8.246;2023-08-24T07:39:57;7.60;;;3.50;;
22603;SDS011;11469;49.024;8.246;2023-08-24T07:42:22;12.93;;;3.72;;
22603;SDS011;11469;49.024;8.246;2023-08-24T07:44:48;14.90;;;3.85;;
22603;SDS011;11469;49.024;8.246;2023-08-24T07:47:14;12.75;;;4.15;;
22603;SDS011;11469;49.024;8.246;2023-08-24T07:49:39;11.15;;;4.00;;
22603;SDS011;11469;49.024;8.246;2023-08-24T07:52:09;7.63;;;3.20;;
22603;SDS011;11469;49.024;8.246;2023-08-24T07:54:36;10.43;;;3.63;;
22603;SDS011;11469;49.024;8.246;2023-08-24T07:57:01;11.20;;;4.25;;
22603;SDS011;11469;49.024;8.246;2023-08-24T07:59:26;12.90;;;3.83;;
22603;SDS011;11469;49.024;8.246;2023-08-24T08:01:52;8.15;;;3.75;;
22603;SDS011;11469;49.024;8.246;2023-08-24T08:04:17;13.98;;;3.65;;
22603;SDS011;11469;49.024;8.246;2023-08-24T08:06:43;12.13;;;4.03;;
22603;SDS011;11469;49.024;8.246;2023-08-24T08:09:08;8.10;;;3.63;;
22603;SDS011;11469;49.024;8.246;2023-08-24T08:11:33;8.98;;;3.88;;
22603;SDS011;11469;49.024;8.246;2023-08-24T08:14:00;11.80;;;3.55;;
22603;SDS011;11469;49.024;8.246;2023-08-24T08:16:25;6.90;;;3.55;;
22603;SDS011;11469;49.024;8.246;2023-08-24T08:18:50;7.43;;;4.05;;
22603;SDS011;11469;49.024;8.246;2023-08-24T08:21:16;10.38;;;3.67;;
22603;SDS011;11469;49.024;8.246;2023-08-24T08:23:45;8.50;;;3.72;;
22603;SDS011;11469;49.024;8.246;2023-08-24T08:26:12;16.55;;;4.15;;
22603;SDS011;11469;49.024;8.246;2023-08-24T08:28:40;9.75;;;3.17;;
22603;SDS011;11469;49.024;8.246;2023-08-24T08:31:06;9.45;;;3.95;;
22603;SDS011;11469;49.024;8.246;2023-08-24T08:33:31;12.60;;;3.72;;
22603;SDS011;11469;49.024;8.246;2023-08-24T08:35:56;10.02;;;3.67;;
22603;SDS011;11469;49.024;8.246;2023-08-24T08:38:22;7.68;;;3.60;;
22603;SDS011;11469;49.024;8.246;2023-08-24T08:40:51;12.02;;;3.85;;
22603;SDS011;11469;49.024;8.246;2023-08-24T08:43:18;9.75;;;3.90;;
22603;SDS011;11469;49.024;8.246;2023-08-24T08:45:47;13.25;;;4.20;;
22603;SDS011;11469;49.024;8.246;2023-08-24T08:48:16;13.63;;;4.03;;
22603;SDS011;11469;49.024;8.246;2023-08-24T08:50:43;15.82;;;3.88;;
22603;SDS011;11469;49.024;8.246;2023-08-24T08:53:09;9.35;;;3.58;;
22603;SDS011;11469;49.024;8.246;2023-08-24T08:55:34;9.90;;;3.90;;
22603;SDS011;11469;49.024;8.246;2023-08-24T08:58:00;8.02;;;3.70;;
22603;SDS011;11469;49.024;8.246;2023-08-24T09:00:27;20.25;;;4.55;;
22603;SDS011;11469;49.024;8.246;2023-08-24T09:02:53;23.48;;;4.40;;
22603;SDS011;11469;49.024;8.246;2023-08-24T09:05:20;11.77;;;4.13;;
22603;SDS011;11469;49.024;8.246;2023-08-24T09:07:46;14.15;;;4.22;;
22603;SDS011;11469;49.024;8.246;2023-08-24T09:10:12;11.95;;;4.07;;
22603;SDS011;11469;49.024;8.246;2023-08-24T09:12:38;9.98;;;3.85;;
22603;SDS011;11469;49.024;8.246;2023-08-24T09:15:04;13.27;;;3.53;;
22603;SDS011;11469;49.024;8.246;2023-08-24T09:17:31;11.20;;;4.03;;
22603;SDS011;11469;49.024;8.246;2023-08-24T09:19:58;11.68;;;3.50;;
22603;SDS011;11469;49.024;8.246;2023-08-24T09:22:25;11.65;;;3.10;;
22603;SDS011;11469;49.024;8.246;2023-08-24T09:24:51;8.02;;;2.80;;
22603;SDS011;11469;49.024;8.246;2023-08-24T09:27:17;8.65;;;2.35;;
22603;SDS011;11469;49.024;8.246;2023-08-24T09:29:50;13.65;;;2.65;;
22603;SDS011;11469;49.024;8.246;2023-08-24T09:32:50;5.93;;;2.10;;
22603;SDS011;11469;49.024;8.246;2023-08-24T09:35:09;6.18;;;2.97;;
22603;SDS011;11469;49.024;8.246;2023-08-24T09:37:36;9.48;;;2.42;;
22603;SDS011;11469;49.024;8.246;2023-08-24T09:40:06;8.68;;;2.60;;
22603;SDS011;11469;49.024;8.246;2023-08-24T09:42:39;5.25;;;2.58;;
22603;SDS011;11469;49.024;8.246;2023-08-24T09:45:07;7.63;;;2.80;;
22603;SDS011;11469;49.024;8.246;2023-08-24T09:47:35;10.02;;;2.78;;
22603;SDS011;11469;49.024;8.246;2023-08-24T09:50:01;6.07;;;2.70;;
22603;SDS011;11469;49.024;8.246;2023-08-24T09:52:28;12.02;;;3.08;;
22603;SDS011;11469;49.024;8.246;2023-08-24T09:55:02;9.68;;;2.33;;
22603;SDS011;11469;49.024;8.246;2023-08-24T09:57:39;6.32;;;2.28;;
22603;SDS011;11469;49.024;8.246;2023-08-24T10:00:08;7.07;;;2.58;;
22603;SDS011;11469;49.024;8.246;2023-08-24T10:02:49;7.38;;;2.83;;
22603;SDS011;11469;49.024;8.246;2023-08-24T10:05:19;6.88;;;2.20;;
22603;SDS011;11469;49.024;8.246;2023-08-24T10:07:51;7.90;;;3.30;;
22603;SDS011;11469;49.024;8.246;2023-08-24T10:10:22;10.10;;;2.30;;
22603;SDS011;11469;49.024;8.246;2023-08-24T10:12:56;9.38;;;2.53;;
22603;SDS011;11469;49.024;8.246;2023-08-24T10:15:24;8.93;;;2.60;;
22603;SDS011;11469;49.024;8.246;2023-08-24T10:17:51;8.90;;;2.78;;
22603;SDS011;11469;49.024;8.246;2023-08-24T10:20:18;11.75;;;2.70;;
22603;SDS011;11469;49.024;8.246;2023-08-24T10:22:45;10.05;;;2.90;;
22603;SDS011;11469;49.024;8.246;2023-08-24T10:25:12;8.23;;;2.90;;
22603;SDS011;11469;49.024;8.246;2023-08-24T10:27:38;7.25;;;2.70;;
22603;SDS011;11469;49.024;8.246;2023-08-24T10:30:09;16.33;;;2.95;;
22603;SDS011;11469;49.024;8.246;2023-08-24T10:32:36;10.77;;;2.78;;
22603;SDS011;11469;49.024;8.246;2023-08-24T10:35:03;5.80;;;2.70;;
22603;SDS011;11469;49.024;8.246;2023-08-24T10:37:28;12.52;;;2.85;;
22603;SDS011;11469;49.024;8.246;2023-08-24T10:39:54;17.73;;;3.47;;
22603;SDS011;11469;49.024;8.246;2023-08-24T10:42:19;13.05;;;3.03;;
22603;SDS011;11469;49.024;8.246;2023-08-24T10:44:46;11.65;;;3.13;;
22603;SDS011;11469;49.024;8.246;2023-08-24T10:47:15;14.07;;;3.28;;
22603;SDS011;11469;49.024;8.246;2023-08-24T10:49:41;9.43;;;2.97;;
22603;SDS011;11469;49.024;8.246;2023-08-24T10:52:15;10.73;;;3.15;;
22603;SDS011;11469;49.024;8.246;2023-08-24T10:54:43;10.20;;;2.70;;
22603;SDS011;11469;49.024;8.246;2023-08-24T10:57:17;12.77;;;2.63;;
22603;SDS011;11469;49.024;8.246;2023-08-24T10:59:44;7.32;;;2.90;;
22603;SDS011;11469;49.024;8.246;2023-08-24T11:02:17;8.63;;;2.58;;
22603;SDS011;11469;49.024;8.246;2023-08-24T11:07:32;6.57;;;2.67;;
22603;SDS011;11469;49.024;8.246;2023-08-24T11:09:57;9.02;;;3.00;;
22603;SDS011;11469;49.024;8.246;2023-08-24T11:12:23;8.57;;;3.50;;
22603;SDS011;11469;49.024;8.246;2023-08-24T11:14:48;7.47;;;3.00;;
22603;SDS011;11469;49.024;8.246;2023-08-24T11:17:23;10.77;;;2.92;;
22603;SDS011;11469;49.024;8.246;2023-08-24T11:19:50;13.82;;;3.58;;
22603;SDS011;11469;49.024;8.246;2023-08-24T11:22:21;9.20;;;3.72;;
22603;SDS011;11469;49.024;8.246;2023-08-24T11:24:47;8.68;;;3.42;;
22603;SDS011;11469;49.024;8.246;2023-08-24T11:27:12;13.18;;;3.00;;
22603;SDS011;11469;49.024;8.246;2023-08-24T11:29:38;9.65;;;2.70;;
22603;SDS011;11469;49.024;8.246;2023-08-24T11:32:03;9.05;;;3.10;;
22603;SDS011;11469;49.024;8.246;2023-08-24T11:34:29;5.63;;;2.83;;
22603;SDS011;11469;49.024;8.246;2023-08-24T11:36:55;8.52;;;2.97;;
22603;SDS011;11469;49.024;8.246;2023-08-24T11:39:21;10.18;;;3.17;;
22603;SDS011;11469;49.024;8.246;2023-08-24T11:42:01;8.30;;;3.20;;
22603;SDS011;11469;49.024;8.246;2023-08-24T11:44:44;12.35;;;3.05;;
22603;SDS011;11469;49.024;8.246;2023-08-24T11:47:11;8.18;;;3.00;;
22603;SDS011;11469;49.024;8.246;2023-08-24T11:49:37;7.57;;;3.35;;
22603;SDS011;11469;49.024;8.246;2023-08-24T11:52:02;6.53;;;3.20;;
22603;SDS011;11469;49.024;8.246;2023-08-24T11:54:28;7.10;;;3.30;;
22603;SDS011;11469;49.024;8.246;2023-08-24T11:56:53;19.02;;;3.25;;
22603;SDS011;11469;49.024;8.246;2023-08-24T11:59:19;11.25;;;3.08;;
22603;SDS011;11469;49.024;8.246;2023-08-24T12:01:45;12.75;;;2.90;;
22603;SDS011;11469;49.024;8.246;2023-08-24T12:04:12;5.32;;;2.70;;
22603;SDS011;11469;49.024;8.246;2023-08-24T12:06:37;11.77;;;3.13;;
22603;SDS011;11469;49.024;8.246;2023-08-24T12:09:05;6.05;;;2.97;;
22603;SDS011;11469;49.024;8.246;2023-08-24T12:11:34;7.95;;;2.88;;
22603;SDS011;11469;49.024;8.246;2023-08-24T12:14:04;12.10;;;3.70;;
22603;SDS011;11469;49.024;8.246;2023-08-24T12:16:33;9.60;;;2.92;;
22603;SDS011;11469;49.024;8.246;2023-08-24T12:18:59;6.57;;;3.30;;
22603;SDS011;11469;49.024;8.246;2023-08-24T12:21:28;12.45;;;3.25;;
22603;SDS011;11469;49.024;8.246;2023-08-24T12:24:04;10.70;;;3.42;;
22603;SDS011;11469;49.024;8.246;2023-08-24T12:26:31;11.00;;;3.80;;
22603;SDS011;11469;49.024;8.246;2023-08-24T12:29:03;9.85;;;3.50;;
22603;SDS011;11469;49.024;8.246;2023-08-24T12:31:33;7.65;;;3.50;;
22603;SDS011;11469;49.024;8.246;2023-08-24T12:34:03;9.35;;;3.58;;
22603;SDS011;11469;49.024;8.246;2023-08-24T12:36:36;8.70;;;3.33;;
22603;SDS011;11469;49.024;8.246;2023-08-24T12:39:06;7.32;;;2.95;;
22603;SDS011;11469;49.024;8.246;2023-08-24T12:41:33;12.82;;;3.15;;
22603;SDS011;11469;49.024;8.246;2023-08-24T12:43:58;6.25;;;3.08;;
22603;SDS011;11469;49.024;8.246;2023-08-24T12:46:24;11.70;;;3.30;;
22603;SDS011;11469;49.024;8.246;2023-08-24T12:48:50;10.85;;;3.10;;
22603;SDS011;11469;49.024;8.246;2023-08-24T12:51:16;9.88;;;3.38;;
22603;SDS011;11469;49.024;8.246;2023-08-24T12:53:42;19.05;;;4.13;;
22603;SDS011;11469;49.024;8.246;2023-08-24T12:56:07;14.23;;;4.30;;
22603;SDS011;11469;49.024;8.246;2023-08-24T12:58:33;11.70;;;3.28;;
22603;SDS011;11469;49.024;8.246;2023-08-24T13:00:59;6.40;;;3.75;;
22603;SDS011;11469;49.024;8.246;2023-08-24T13:03:24;7.88;;;3.25;;
22603;SDS011;11469;49.024;8.246;2023-08-24T13:05:50;8.00;;;3.65;;
22603;SDS011;11469;49.024;8.246;2023-08-24T13:08:15;14.43;;;3.60;;
22603;SDS011;11469;49.024;8.246;2023-08-24T13:10:41;11.73;;;3.10;;
22603;SDS011;11469;49.024;8.246;2023-08-24T13:13:07;21.48;;;4.30;;
22603;SDS011;11469;49.024;8.246;2023-08-24T13:15:33;13.82;;;3.60;;
22603;SDS011;11469;49.024;8.246;2023-08-24T13:17:58;12.70;;;3.70;;
22603;SDS011;11469;49.024;8.246;2023-08-24T13:20:24;7.35;;;3.50;;
22603;SDS011;11469;49.024;8.246;2023-08-24T13:22:50;8.43;;;3.70;;
22603;SDS011;11469;49.024;8.246;2023-08-24T13:25:17;10.27;;;3.47;;
22603;SDS011;11469;49.024;8.246;2023-08-24T13:27:43;6.93;;;3.25;;
22603;SDS011;11469;49.024;8.246;2023-08-24T13:30:08;8.23;;;3.55;;
22603;SDS011;11469;49.024;8.246;2023-08-24T13:32:34;10.13;;;3.45;;
22603;SDS011;11469;49.024;8.246;2023-08-24T13:35:00;13.05;;;3.70;;
22603;SDS011;11469;49.024;8.246;2023-08-24T13:37:26;10.60;;;3.78;;
22603;SDS011;11469;49.024;8.246;2023-08-24T13:39:51;6.75;;;3.45;;
22603;SDS011;11469;49.024;8.246;2023-08-24T13:42:17;5.93;;;3.58;;
22603;SDS011;11469;49.024;8.246;2023-08-24T13:44:43;12.35;;;3.70;;
22603;SDS011;11469;49.024;8.246;2023-08-24T13:47:09;5.25;;;2.97;;
22603;SDS011;11469;49.024;8.246;2023-08-24T13:49:34;10.57;;;3.80;;
22603;SDS011;11469;49.024;8.246;2023-08-24T13:52:00;8.20;;;3.55;;
22603;SDS011;11469;49.024;8.246;2023-08-24T13:54:25;4.97;;;3.50;;
22603;SDS011;11469;49.024;8.246;2023-08-24T13:56:51;5.72;;;3.47;;
22603;SDS011;11469;49.024;8.246;2023-08-24T13:59:19;10.00;;;4.05;;
22603;SDS011;11469;49.024;8.246;2023-08-24T14:01:44;9.60;;;3.83;;
22603;SDS011;11469;49.024;8.246;2023-08-24T14:04:10;9.88;;;3.97;;
22603;SDS011;11469;49.024;8.246;2023-08-24T14:06:35;15.65;;;4.00;;
22603;SDS011;11469;49.024;8.246;2023-08-24T14:09:02;12.80;;;4.25;;
22603;SDS011;11469;49.024;8.246;2023-08-24T14:11:28;20.45;;;4.90;;
22603;SDS011;11469;49.024;8.246;2023-08-24T14:13:54;25.45;;;6.35;;
22603;SDS011;11469;49.024;8.246;2023-08-24T14:16:19;22.85;;;6.90;;
22603;SDS011;11469;49.024;8.246;2023-08-24T14:18:46;12.50;;;5.70;;
22603;SDS011;11469;49.024;8.246;2023-08-24T14:21:12;16.42;;;6.25;;
22603;SDS011;11469;49.024;8.246;2023-08-24T14:23:37;11.65;;;5.30;;
22603;SDS011;11469;49.024;8.246;2023-08-24T14:26:03;21.13;;;5.75;;
22603;SDS011;11469;49.024;8.246;2023-08-24T14:28:50;14.60;;;7.32;;
22603;SDS011;11469;49.024;8.246;2023-08-24T14:31:14;22.65;;;7.05;;
22603;SDS011;11469;49.024;8.246;2023-08-24T14:33:41;16.13;;;7.43;;
22603;SDS011;11469;49.024;8.246;2023-08-24T14:36:06;12.75;;;6.50;;
22603;SDS011;11469;49.024;8.246;2023-08-24T14:38:31;14.63;;;7.30;;
22603;SDS011;11469;49.024;8.246;2023-08-24T14:40:57;12.43;;;6.75;;